createdAt,value
2018-11-05T00:00:14.778Z,99.90
2018-11-05T00:02:42.188Z,99.90
2018-11-05T00:05:09.548Z,99.90
2018-11-05T00:07:36.882Z,99.90
2018-11-05T00:10:04.317Z,99.90
2018-11-05T00:12:31.653Z,99.90
2018-11-05T00:14:59.021Z,99.90
2018-11-05T00:17:26.352Z,99.90
2018-11-05T00:19:53.684Z,99.90
2018-11-05T00:22:21.029Z,99.90
2018-11-05T00:24:48.364Z,99.90
2018-11-05T00:27:16.891Z,99.90
2018-11-05T00:29:44.220Z,99.90
2018-11-05T00:32:11.537Z,99.90
2018-11-05T00:34:38.865Z,99.90
2018-11-05T00:37:06.210Z,99.90
2018-11-05T00:39:34.533Z,99.90
2018-11-05T00:42:01.884Z,99.90
2018-11-05T00:44:29.208Z,99.90
2018-11-05T00:46:56.542Z,99.90
2018-11-05T00:49:23.907Z,99.90
2018-11-05T00:51:51.304Z,99.90
2018-11-05T00:54:18.636Z,99.90
2018-11-05T00:56:45.966Z,99.90
2018-11-05T00:59:13.277Z,99.90
2018-11-05T01:01:40.595Z,99.90
2018-11-05T01:04:07.966Z,99.90
2018-11-05T01:06:35.312Z,99.90
2018-11-05T01:09:02.812Z,99.90
2018-11-05T01:11:30.146Z,99.90
2018-11-05T01:13:57.464Z,99.90
2018-11-05T01:16:24.792Z,99.90
2018-11-05T01:18:52.113Z,99.90
2018-11-05T01:21:19.440Z,99.90
2018-11-05T01:23:47.776Z,99.90
2018-11-05T01:26:15.112Z,99.90
2018-11-05T01:28:42.451Z,99.90
2018-11-05T01:31:09.816Z,99.90
2018-11-05T01:33:37.143Z,99.90
2018-11-05T01:36:04.482Z,99.90
2018-11-05T01:38:31.848Z,99.90
2018-11-05T01:40:59.147Z,99.90
2018-11-05T01:43:26.432Z,99.90
2018-11-05T01:45:53.715Z,99.90
2018-11-05T01:48:21.012Z,99.90
2018-11-05T01:50:48.309Z,99.90
2018-11-05T01:53:15.752Z,99.90
2018-11-05T01:55:43.069Z,99.90
2018-11-05T01:58:10.395Z,99.90
2018-11-05T02:00:37.715Z,99.90
2018-11-05T02:03:05.044Z,99.90
2018-11-05T02:05:32.396Z,99.90
2018-11-05T02:07:59.712Z,99.90
2018-11-05T02:10:27.174Z,99.90
2018-11-05T02:12:54.412Z,99.90
2018-11-05T02:15:21.749Z,99.90
2018-11-05T02:17:49.129Z,99.90
2018-11-05T02:20:16.990Z,99.90
2018-11-05T02:22:44.344Z,99.90
2018-11-05T02:25:12.366Z,99.90
2018-11-05T02:27:40.080Z,99.90
2018-11-05T02:30:13.081Z,99.90
2018-11-05T02:32:40.410Z,99.90
2018-11-05T02:35:09.418Z,99.90
2018-11-05T02:37:36.743Z,99.90
2018-11-05T02:40:06.576Z,99.90
2018-11-05T02:42:33.901Z,99.90
2018-11-05T02:45:01.227Z,99.90
2018-11-05T02:47:29.571Z,99.90
2018-11-05T02:49:56.891Z,99.90
2018-11-05T02:52:24.208Z,99.90
2018-11-05T02:54:51.539Z,99.90
2018-11-05T02:57:18.857Z,99.90
2018-11-05T02:59:46.192Z,99.90
2018-11-05T03:02:13.533Z,99.90
2018-11-05T03:04:40.871Z,99.90
2018-11-05T03:07:08.190Z,99.90
2018-11-05T03:09:36.509Z,99.90
2018-11-05T03:12:04.136Z,99.90
2018-11-05T03:14:31.460Z,99.90
2018-11-05T03:16:58.789Z,99.90
2018-11-05T03:19:26.113Z,99.90
2018-11-05T03:21:53.450Z,99.90
2018-11-05T03:24:21.316Z,99.90
2018-11-05T03:26:48.716Z,99.90
2018-11-05T03:29:16.017Z,99.90
2018-11-05T03:31:43.360Z,99.90
2018-11-05T03:34:10.741Z,99.90
2018-11-05T03:36:38.079Z,99.90
2018-11-05T03:39:07.812Z,99.90
2018-11-05T03:41:35.218Z,99.90
2018-11-05T03:44:02.548Z,99.90
2018-11-05T03:46:30.160Z,99.90
2018-11-05T03:48:57.498Z,99.90
2018-11-05T03:51:24.816Z,99.90
2018-11-05T03:53:52.132Z,99.90
2018-11-05T03:56:19.626Z,99.90
2018-11-05T03:58:46.796Z,99.90
2018-11-05T04:01:14.117Z,99.90
2018-11-05T04:03:41.616Z,99.90
2018-11-05T04:06:08.951Z,99.90
2018-11-05T04:08:36.277Z,99.90
2018-11-05T04:11:03.906Z,99.90
2018-11-05T04:13:31.270Z,99.90
2018-11-05T04:15:59.698Z,99.90
2018-11-05T04:18:26.942Z,99.90
2018-11-05T04:20:54.263Z,99.90
2018-11-05T04:23:21.612Z,99.90
2018-11-05T04:25:48.925Z,99.90
2018-11-05T04:28:16.252Z,99.90
2018-11-05T04:30:43.572Z,99.90
2018-11-05T04:33:11.904Z,99.90
2018-11-05T04:35:39.228Z,99.90
2018-11-05T04:38:06.553Z,99.90
2018-11-05T04:40:33.888Z,99.90
2018-11-05T04:43:01.215Z,99.90
2018-11-05T04:45:28.532Z,99.90
2018-11-05T04:47:55.853Z,99.90
2018-11-05T04:50:23.209Z,99.90
2018-11-05T04:52:51.223Z,99.90
2018-11-05T04:55:18.560Z,99.90
2018-11-05T04:57:45.889Z,99.90
2018-11-05T05:00:15.145Z,99.90
2018-11-05T05:02:42.683Z,99.90
2018-11-05T05:05:11.371Z,99.90
2018-11-05T05:07:38.690Z,99.90
2018-11-05T05:10:06.644Z,99.90
2018-11-05T05:12:33.983Z,99.90
2018-11-05T05:15:01.297Z,99.90
2018-11-05T05:17:28.664Z,99.90
2018-11-05T05:19:56.516Z,99.90
2018-11-05T05:22:24.154Z,99.90
2018-11-05T05:24:51.423Z,99.90
2018-11-05T05:27:18.768Z,99.90
2018-11-05T05:29:46.109Z,99.90
2018-11-05T05:32:13.450Z,99.90
2018-11-05T05:34:40.841Z,99.90
2018-11-05T05:37:08.191Z,99.90
2018-11-05T05:39:35.538Z,99.90
2018-11-05T05:42:02.901Z,99.90
2018-11-05T05:44:30.277Z,99.90
2018-11-05T05:46:57.616Z,99.90
2018-11-05T05:49:24.953Z,99.90
2018-11-05T05:51:52.326Z,99.90
2018-11-05T05:54:19.665Z,99.90
2018-11-05T05:56:47.010Z,99.90
2018-11-05T05:59:14.380Z,99.90
2018-11-05T06:01:41.721Z,99.90
2018-11-05T06:04:09.091Z,99.90
2018-11-05T06:06:36.476Z,99.90
2018-11-05T06:09:06.453Z,99.90
2018-11-05T06:11:33.804Z,99.90
2018-11-05T06:14:01.143Z,99.90
2018-11-05T06:16:28.508Z,99.90
2018-11-05T06:18:55.836Z,99.90
2018-11-05T06:21:23.207Z,99.90
2018-11-05T06:23:50.553Z,99.90
2018-11-05T06:26:17.859Z,99.90
2018-11-05T06:28:45.339Z,99.90
2018-11-05T06:31:12.582Z,99.90
2018-11-05T06:33:39.945Z,99.90
2018-11-05T06:36:07.300Z,99.90
2018-11-05T06:38:34.641Z,99.90
2018-11-05T06:41:02.032Z,99.90
2018-11-05T06:43:29.377Z,99.90
2018-11-05T06:45:56.718Z,99.90
2018-11-05T06:48:29.176Z,99.90
2018-11-05T06:50:56.552Z,99.90
2018-11-05T06:53:26.757Z,99.90
2018-11-05T06:55:54.084Z,99.90
2018-11-05T06:58:21.420Z,99.90
2018-11-05T07:00:48.778Z,99.90
2018-11-05T07:03:16.244Z,99.90
2018-11-05T07:05:43.599Z,99.90
2018-11-05T07:08:10.933Z,99.90
2018-11-05T07:10:38.293Z,99.90
2018-11-05T07:13:05.644Z,99.90
2018-11-05T07:15:33.001Z,99.90
2018-11-05T07:18:00.320Z,99.90
2018-11-05T07:20:27.656Z,99.90
2018-11-05T07:22:54.990Z,99.90
2018-11-05T07:25:22.333Z,99.90
2018-11-05T07:27:49.785Z,99.90
2018-11-05T07:30:19.162Z,99.90
2018-11-05T07:32:47.140Z,99.90
2018-11-05T07:35:14.905Z,99.90
2018-11-05T07:37:42.550Z,99.90
2018-11-05T07:40:11.431Z,99.90
2018-11-05T07:42:39.004Z,99.90
2018-11-05T07:45:13.117Z,99.90
2018-11-05T07:47:41.083Z,99.90
2018-11-05T07:50:10.391Z,99.90
2018-11-05T07:52:37.832Z,99.90
2018-11-05T07:55:06.343Z,99.90
2018-11-05T07:57:33.688Z,99.90
2018-11-05T08:00:01.268Z,99.90
2018-11-05T08:02:28.608Z,99.90
2018-11-05T08:04:56.997Z,99.90
2018-11-05T08:07:24.353Z,99.90
2018-11-05T08:09:51.723Z,99.90
2018-11-05T08:12:19.091Z,99.90
2018-11-05T08:14:46.407Z,99.90
2018-11-05T08:17:14.513Z,99.90
2018-11-05T08:19:41.941Z,99.90
2018-11-05T08:22:09.288Z,99.90
2018-11-05T08:24:36.648Z,99.90
2018-11-05T08:27:04.721Z,99.90
2018-11-05T08:29:32.082Z,99.90
2018-11-05T08:31:59.429Z,99.90
2018-11-05T08:34:26.894Z,99.90
2018-11-05T08:36:54.111Z,99.90
2018-11-05T08:39:21.453Z,99.90
2018-11-05T08:41:48.804Z,99.90
2018-11-05T08:44:16.189Z,99.90
2018-11-05T08:46:43.609Z,99.90
2018-11-05T08:49:11.961Z,99.90
2018-11-05T08:51:39.432Z,99.90
2018-11-05T08:54:06.714Z,99.90
2018-11-05T08:56:35.119Z,99.90
2018-11-05T08:59:02.537Z,99.90
2018-11-05T09:01:32.280Z,99.90
2018-11-05T09:04:00.087Z,99.90
2018-11-05T09:06:27.965Z,99.90
2018-11-05T09:08:55.312Z,99.90
2018-11-05T09:11:23.076Z,99.90
2018-11-05T09:13:50.017Z,99.90
2018-11-05T09:16:17.466Z,99.90
2018-11-05T09:18:44.763Z,99.90
2018-11-05T09:21:12.116Z,99.90
2018-11-05T09:23:39.472Z,99.90
2018-11-05T09:26:06.843Z,99.90
2018-11-05T09:28:34.215Z,99.90
2018-11-05T09:31:01.555Z,99.90
2018-11-05T09:33:28.893Z,99.90
2018-11-05T09:35:56.257Z,99.90
2018-11-05T09:38:23.600Z,99.90
2018-11-05T09:40:51.457Z,99.90
2018-11-05T09:43:18.856Z,99.90
2018-11-05T09:45:46.212Z,99.90
2018-11-05T09:48:13.565Z,99.90
2018-11-05T09:50:40.898Z,99.90
2018-11-05T09:53:08.233Z,99.90
2018-11-05T09:55:35.659Z,99.90
2018-11-05T09:58:02.961Z,99.90
2018-11-05T10:00:30.297Z,99.90
2018-11-05T10:03:03.638Z,99.90
2018-11-05T10:05:30.938Z,99.90
2018-11-05T10:07:58.212Z,99.90
2018-11-05T10:10:25.617Z,99.90
2018-11-05T10:12:52.920Z,99.90
2018-11-05T10:15:20.275Z,99.90
2018-11-05T10:17:47.603Z,99.90
2018-11-05T10:20:16.724Z,99.90
2018-11-05T10:22:44.508Z,99.90
2018-11-05T10:25:12.516Z,99.90
2018-11-05T10:27:39.807Z,99.90
2018-11-05T10:30:09.452Z,99.90
2018-11-05T10:32:36.790Z,99.90
2018-11-05T10:35:04.456Z,99.90
2018-11-05T10:37:31.813Z,99.90
2018-11-05T10:39:59.163Z,99.90
2018-11-05T10:42:26.521Z,99.90
2018-11-05T10:44:53.885Z,99.90
2018-11-05T10:47:21.214Z,99.90
2018-11-05T10:49:48.544Z,99.90
2018-11-05T10:52:16.082Z,99.90
2018-11-05T10:54:43.285Z,99.90
2018-11-05T10:57:10.617Z,99.90
2018-11-05T10:59:37.952Z,99.90
2018-11-05T11:02:10.990Z,99.90
2018-11-05T11:04:38.348Z,99.90
2018-11-05T11:07:05.727Z,99.90
2018-11-05T11:09:33.143Z,99.90
2018-11-05T11:12:00.632Z,99.90
2018-11-05T11:14:28.397Z,99.90
2018-11-05T11:16:55.949Z,99.90
2018-11-05T11:19:23.316Z,99.90
2018-11-05T11:21:50.759Z,99.90
2018-11-05T11:24:18.214Z,99.90
2018-11-05T11:26:45.602Z,99.90
2018-11-05T11:29:13.080Z,99.90
2018-11-05T11:31:40.313Z,99.90
2018-11-05T11:34:07.637Z,99.90
2018-11-05T11:36:35.028Z,99.90
2018-11-05T11:39:02.772Z,99.90
2018-11-05T11:41:30.101Z,99.90
2018-11-05T11:43:57.465Z,99.90
2018-11-05T11:46:24.838Z,99.90
2018-11-05T11:48:52.177Z,99.90
2018-11-05T11:51:19.526Z,99.90
2018-11-05T11:53:46.876Z,99.90
2018-11-05T11:56:14.234Z,99.90
2018-11-05T11:58:41.590Z,99.90
2018-11-05T12:01:09.697Z,99.90
2018-11-05T12:03:37.051Z,99.90
2018-11-05T12:06:04.447Z,99.90
2018-11-05T12:08:31.764Z,99.90
2018-11-05T12:10:59.088Z,99.90
2018-11-05T12:13:26.420Z,99.90
2018-11-05T12:15:53.762Z,99.90
2018-11-05T12:18:21.104Z,99.90
2018-11-05T12:20:49.251Z,99.90
2018-11-05T12:23:17.594Z,99.90
2018-11-05T12:25:44.956Z,99.90
2018-11-05T12:28:13.308Z,99.90
2018-11-05T12:30:40.661Z,99.90
2018-11-05T12:33:08.022Z,99.90
2018-11-05T12:35:35.392Z,99.90
2018-11-05T12:38:03.827Z,99.90
2018-11-05T12:40:31.194Z,99.90
2018-11-05T12:42:58.575Z,99.90
2018-11-05T12:45:26.629Z,99.90
2018-11-05T12:47:53.960Z,99.90
2018-11-05T12:50:22.621Z,99.30
2018-11-05T12:52:50.998Z,98.20
2018-11-05T12:55:18.372Z,96.70
2018-11-05T12:57:46.116Z,96.60
2018-11-05T13:00:15.869Z,94.70
2018-11-05T13:02:43.241Z,94.10
2018-11-05T13:05:12.789Z,92.40
2018-11-05T13:07:40.380Z,92.50
2018-11-05T13:10:09.690Z,91.30
2018-11-05T13:12:37.077Z,90.20
2018-11-05T13:15:05.255Z,90.20
2018-11-05T13:17:32.737Z,86.40
2018-11-05T13:20:00.066Z,90.10
2018-11-05T13:22:27.509Z,90.10
2018-11-05T13:24:54.739Z,89.30
2018-11-05T13:27:22.067Z,90.80
2018-11-05T13:29:49.478Z,91.70
2018-11-05T13:32:17.422Z,91.50
2018-11-05T13:34:44.753Z,91.90
2018-11-05T13:37:12.205Z,91.60
2018-11-05T13:39:39.461Z,91.70
2018-11-05T13:42:07.816Z,91.70
2018-11-05T13:44:35.218Z,91.80
2018-11-05T13:47:03.142Z,89.30
2018-11-05T13:49:29.913Z,88.70
2018-11-05T13:51:57.242Z,87.20
2018-11-05T13:54:24.686Z,86.10
2018-11-05T13:56:51.874Z,83.20
2018-11-05T13:59:19.329Z,84.50
2018-11-05T14:01:48.664Z,83.10
2018-11-05T14:04:16.040Z,83.50
2018-11-05T14:06:43.356Z,85.40
2018-11-05T14:09:10.872Z,82.80
2018-11-05T14:11:38.229Z,84.40
2018-11-05T14:14:05.734Z,84.70
2018-11-05T14:16:33.065Z,82.50
2018-11-05T14:19:00.425Z,83.70
2018-11-05T14:21:28.269Z,82.70
2018-11-05T14:23:55.635Z,81.20
2018-11-05T14:26:22.969Z,80.40
2018-11-05T14:28:50.772Z,85.60
2018-11-05T14:31:17.725Z,86.50
2018-11-05T14:33:45.076Z,89.30
2018-11-05T14:36:12.437Z,90.70
2018-11-05T14:38:39.904Z,88.90
2018-11-05T14:41:07.176Z,89.10
2018-11-05T14:43:34.639Z,89.50
2018-11-05T14:46:01.953Z,89.40
2018-11-05T14:48:30.364Z,89.90
2018-11-05T14:50:57.664Z,87.70
2018-11-05T14:53:25.043Z,78.90
2018-11-05T14:55:52.363Z,75.80
2018-11-05T14:58:19.729Z,76.40
2018-11-05T15:00:47.049Z,82.20
2018-11-05T15:03:14.361Z,83.30
2018-11-05T15:05:41.639Z,84.00
2018-11-05T15:08:08.927Z,84.40
2018-11-05T15:10:36.226Z,84.30
2018-11-05T15:13:03.814Z,85.30
2018-11-05T15:15:31.165Z,86.20
2018-11-05T15:17:58.495Z,88.20
2018-11-05T15:20:25.923Z,88.10
2018-11-05T15:22:53.232Z,89.50
2018-11-05T15:25:21.020Z,90.30
2018-11-05T15:27:48.369Z,91.70
2018-11-05T15:30:17.277Z,92.80
2018-11-05T15:32:44.840Z,94.20
2018-11-05T15:35:12.183Z,93.80
2018-11-05T15:37:40.450Z,94.20
2018-11-05T15:40:09.020Z,95.60
2018-11-05T15:42:36.595Z,97.90
2018-11-05T15:45:05.318Z,99.90
2018-11-05T15:47:35.301Z,99.90
2018-11-05T15:50:03.407Z,99.90
2018-11-05T15:52:31.009Z,99.90
2018-11-05T15:54:58.124Z,99.90
2018-11-05T15:57:25.436Z,99.90
2018-11-05T15:59:52.768Z,99.90
2018-11-05T16:02:20.107Z,99.90
2018-11-05T16:04:47.417Z,99.90
2018-11-05T16:07:14.752Z,99.90
2018-11-05T16:09:42.100Z,99.90
2018-11-05T16:12:09.452Z,99.90
2018-11-05T16:14:37.145Z,99.90
2018-11-05T16:17:04.516Z,99.90
2018-11-05T16:19:31.888Z,99.90
2018-11-05T16:21:59.494Z,99.90
2018-11-05T16:24:27.169Z,99.90
2018-11-05T16:26:54.807Z,99.90
2018-11-05T16:29:22.165Z,99.90
2018-11-05T16:31:49.535Z,99.90
2018-11-05T16:34:16.919Z,99.90
2018-11-05T16:36:44.225Z,99.90
2018-11-05T16:39:12.916Z,99.90
2018-11-05T16:41:40.589Z,99.90
2018-11-05T16:44:08.343Z,99.90
2018-11-05T16:46:35.665Z,99.90
2018-11-05T16:49:03.008Z,99.90
2018-11-05T16:51:30.360Z,99.90
2018-11-05T16:53:57.772Z,99.90
2018-11-05T16:56:25.017Z,99.90
2018-11-05T16:58:52.381Z,99.90
2018-11-05T17:01:20.095Z,99.90
2018-11-05T17:03:47.409Z,99.90
2018-11-05T17:06:14.859Z,99.90
2018-11-05T17:08:42.250Z,99.90
2018-11-05T17:11:09.627Z,99.90
2018-11-05T17:13:37.213Z,99.90
2018-11-05T17:16:05.136Z,99.90
2018-11-05T17:18:32.465Z,99.90
2018-11-05T17:20:59.857Z,99.60
2018-11-05T17:23:27.211Z,98.80
2018-11-05T17:25:54.528Z,98.60
2018-11-05T17:28:21.857Z,98.50
2018-11-05T17:30:49.192Z,98.40
2018-11-05T17:33:16.569Z,98.30
2018-11-05T17:35:43.915Z,98.50
2018-11-05T17:38:11.253Z,98.30
2018-11-05T17:40:38.585Z,98.90
2018-11-05T17:43:05.904Z,98.90
2018-11-05T17:45:33.253Z,98.90
2018-11-05T17:48:00.588Z,98.70
2018-11-05T17:50:27.908Z,98.20
2018-11-05T17:52:55.238Z,97.30
2018-11-05T17:55:22.572Z,97.10
2018-11-05T17:57:50.021Z,97.50
2018-11-05T18:00:19.581Z,97.10
2018-11-05T18:02:46.942Z,97.30
2018-11-05T18:05:14.641Z,97.30
2018-11-05T18:07:42.200Z,97.50
2018-11-05T18:10:09.565Z,97.60
2018-11-05T18:12:36.909Z,97.50
2018-11-05T18:15:06.340Z,97.20
2018-11-05T18:17:33.684Z,97.30
2018-11-05T18:20:01.025Z,97.30
2018-11-05T18:22:28.365Z,97.30
2018-11-05T18:24:56.138Z,97.30
2018-11-05T18:27:23.468Z,97.30
2018-11-05T18:29:51.844Z,97.10
2018-11-05T18:32:20.094Z,97.10
2018-11-05T18:34:49.049Z,97.80
2018-11-05T18:37:16.534Z,98.10
2018-11-05T18:39:44.177Z,98.00
2018-11-05T18:42:11.624Z,97.70
2018-11-05T18:44:39.901Z,97.50
2018-11-05T18:47:07.489Z,97.20
2018-11-05T18:49:36.473Z,97.20
2018-11-05T18:52:04.504Z,96.90
2018-11-05T18:54:31.857Z,96.60
2018-11-05T18:56:59.191Z,96.40
2018-11-05T18:59:26.560Z,96.80
2018-11-05T19:01:53.889Z,97.10
2018-11-05T19:04:21.206Z,97.80
2018-11-05T19:06:48.803Z,99.00
2018-11-05T19:09:16.456Z,99.20
2018-11-05T19:11:43.736Z,99.70
2018-11-05T19:14:11.052Z,99.90
2018-11-05T19:16:38.370Z,99.90
2018-11-05T19:19:05.744Z,99.90
2018-11-05T19:21:33.069Z,99.70
2018-11-05T19:24:00.593Z,99.50
2018-11-05T19:26:27.772Z,99.10
2018-11-05T19:28:55.106Z,98.90
2018-11-05T19:31:22.461Z,98.60
2018-11-05T19:33:49.856Z,98.80
2018-11-05T19:36:17.192Z,98.60
2018-11-05T19:38:44.454Z,98.00
2018-11-05T19:41:11.797Z,97.70
2018-11-05T19:43:39.142Z,97.90
2018-11-05T19:46:06.661Z,98.10
2018-11-05T19:48:34.000Z,98.00
2018-11-05T19:51:01.380Z,98.10
2018-11-05T19:53:28.713Z,98.10
2018-11-05T19:55:56.057Z,98.20
2018-11-05T19:58:24.302Z,98.70
2018-11-05T20:00:51.730Z,98.70
2018-11-05T20:03:19.526Z,98.90
2018-11-05T20:05:46.974Z,99.20
2018-11-05T20:08:14.240Z,99.20
2018-11-05T20:10:41.590Z,99.10
2018-11-05T20:13:09.958Z,98.80
2018-11-05T20:15:37.366Z,99.00
2018-11-05T20:18:04.939Z,99.20
2018-11-05T20:20:32.309Z,99.10
2018-11-05T20:22:59.717Z,99.40
2018-11-05T20:25:26.998Z,99.50
2018-11-05T20:27:54.312Z,99.40
2018-11-05T20:30:25.807Z,99.30
2018-11-05T20:32:54.438Z,99.00
2018-11-05T20:35:22.521Z,99.40
2018-11-05T20:37:49.904Z,99.80
2018-11-05T20:40:18.458Z,99.90
2018-11-05T20:42:47.093Z,99.90
2018-11-05T20:45:15.141Z,99.90
2018-11-05T20:47:43.728Z,99.90
2018-11-05T20:50:11.897Z,99.90
2018-11-05T20:52:39.569Z,99.90
2018-11-05T20:55:08.047Z,99.90
2018-11-05T20:57:35.408Z,99.90
2018-11-05T21:00:03.077Z,99.90
2018-11-05T21:02:30.437Z,99.90
2018-11-05T21:04:57.764Z,99.90
2018-11-05T21:07:25.072Z,99.90
2018-11-05T21:09:52.408Z,99.90
2018-11-05T21:12:19.723Z,99.90
2018-11-05T21:14:47.192Z,99.90
2018-11-05T21:17:14.563Z,99.90
2018-11-05T21:19:43.154Z,99.90
2018-11-05T21:22:12.110Z,99.90
2018-11-05T21:24:39.408Z,99.90
2018-11-05T21:27:06.908Z,99.90
2018-11-05T21:29:34.812Z,99.90
2018-11-05T21:32:02.141Z,99.90
2018-11-05T21:34:29.460Z,99.90
2018-11-05T21:36:56.836Z,99.90
2018-11-05T21:39:24.164Z,99.90
2018-11-05T21:41:51.477Z,99.90
2018-11-05T21:44:18.815Z,99.90
2018-11-05T21:46:46.133Z,99.90
2018-11-05T21:49:13.461Z,99.90
2018-11-05T21:51:40.763Z,99.90
2018-11-05T21:54:08.218Z,99.90
2018-11-05T21:56:37.365Z,99.90
2018-11-05T21:59:04.688Z,99.90
2018-11-05T22:01:32.021Z,99.90
2018-11-05T22:03:59.352Z,99.90
2018-11-05T22:06:26.662Z,99.90
2018-11-05T22:08:53.973Z,99.60
2018-11-05T22:11:21.302Z,99.60
2018-11-05T22:13:48.602Z,99.70
2018-11-05T22:16:15.936Z,99.80
2018-11-05T22:18:43.241Z,99.90
2018-11-05T22:21:10.572Z,99.90
2018-11-05T22:23:37.872Z,99.90
2018-11-05T22:26:05.236Z,99.90
2018-11-05T22:28:32.549Z,99.90
2018-11-05T22:30:59.883Z,99.90
2018-11-05T22:33:27.200Z,99.90
2018-11-05T22:35:54.547Z,99.90
2018-11-05T22:38:22.869Z,99.90
2018-11-05T22:40:50.404Z,99.90
2018-11-05T22:43:17.740Z,99.90
2018-11-05T22:45:45.098Z,99.90
2018-11-05T22:48:12.436Z,99.90
2018-11-05T22:50:39.749Z,99.90
2018-11-05T22:53:07.089Z,99.90
2018-11-05T22:55:34.419Z,99.90
2018-11-05T22:58:02.832Z,99.90
2018-11-05T23:00:35.784Z,99.90
2018-11-05T23:03:09.013Z,99.90
2018-11-05T23:05:36.339Z,99.90
2018-11-05T23:08:03.721Z,99.90
2018-11-05T23:10:31.069Z,99.90
2018-11-05T23:12:58.393Z,99.90
2018-11-05T23:15:25.722Z,99.90
2018-11-05T23:17:53.092Z,99.90
2018-11-05T23:20:20.437Z,99.90
2018-11-05T23:22:47.766Z,99.90
2018-11-05T23:25:15.203Z,99.90
2018-11-05T23:27:42.524Z,99.90
2018-11-05T23:30:11.464Z,99.90
2018-11-05T23:32:39.552Z,99.90
2018-11-05T23:35:07.712Z,99.90
2018-11-05T23:37:36.419Z,99.90
2018-11-05T23:40:04.173Z,99.90
2018-11-05T23:42:31.560Z,99.90
2018-11-05T23:44:58.894Z,99.90
2018-11-05T23:47:27.573Z,99.90
2018-11-05T23:49:55.020Z,99.90
2018-11-05T23:52:22.676Z,99.90
2018-11-05T23:54:50.157Z,99.90
2018-11-05T23:57:17.485Z,99.90
2018-11-05T23:59:45.845Z,99.90
